sensor_id;sensor_type;location;lat;lon;timestamp;P1;durP1;ratioP1;P2;durP2;ratioP2
20022;SDS011;10172;42.054;24.546;2023-07-29T00:01:58;1.55;;;1.10;;
20022;SDS011;10172;42.054;24.546;2023-07-29T00:04:24;1.70;;;1.15;;
20022;SDS011;10172;42.054;24.546;2023-07-29T00:06:49;1.70;;;1.17;;
20022;SDS011;10172;42.054;24.546;2023-07-29T00:09:15;1.63;;;0.98;;
20022;SDS011;10172;42.054;24.546;2023-07-29T00:11:40;3.42;;;1.33;;
20022;SDS011;10172;42.054;24.546;2023-07-29T00:14:05;2.67;;;1.38;;
20022;SDS011;10172;42.054;24.546;2023-07-29T00:16:31;1.88;;;1.13;;
20022;SDS011;10172;42.054;24.546;2023-07-29T00:18:56;2.72;;;1.30;;
20022;SDS011;10172;42.054;24.546;2023-07-29T00:21:22;2.10;;;1.23;;
20022;SDS011;10172;42.054;24.546;2023-07-29T00:23:48;2.05;;;1.00;;
20022;SDS011;10172;42.054;24.546;2023-07-29T00:26:13;4.20;;;1.48;;
20022;SDS011;10172;42.054;24.546;2023-07-29T00:28:39;3.13;;;1.20;;
20022;SDS011;10172;42.054;24.546;2023-07-29T00:31:04;3.42;;;1.42;;
20022;SDS011;10172;42.054;24.546;2023-07-29T00:33:29;2.35;;;1.27;;
20022;SDS011;10172;42.054;24.546;2023-07-29T00:35:55;1.92;;;1.20;;
20022;SDS011;10172;42.054;24.546;2023-07-29T00:38:20;1.63;;;1.25;;
20022;SDS011;10172;42.054;24.546;2023-07-29T00:40:46;1.65;;;1.30;;
20022;SDS011;10172;42.054;24.546;2023-07-29T00:43:11;1.65;;;1.20;;
20022;SDS011;10172;42.054;24.546;2023-07-29T00:45:37;2.75;;;1.13;;
20022;SDS011;10172;42.054;24.546;2023-07-29T00:48:03;2.97;;;1.20;;
20022;SDS011;10172;42.054;24.546;2023-07-29T00:50:30;1.85;;;1.20;;
20022;SDS011;10172;42.054;24.546;2023-07-29T00:52:57;2.20;;;1.17;;
20022;SDS011;10172;42.054;24.546;2023-07-29T00:55:23;2.13;;;1.38;;
20022;SDS011;10172;42.054;24.546;2023-07-29T00:57:49;3.20;;;1.30;;
20022;SDS011;10172;42.054;24.546;2023-07-29T01:00:17;1.30;;;1.02;;
20022;SDS011;10172;42.054;24.546;2023-07-29T01:02:43;2.50;;;1.40;;
20022;SDS011;10172;42.054;24.546;2023-07-29T01:05:10;2.03;;;1.30;;
20022;SDS011;10172;42.054;24.546;2023-07-29T01:10:14;3.83;;;1.60;;
20022;SDS011;10172;42.054;24.546;2023-07-29T01:16:21;2.85;;;1.25;;
20022;SDS011;10172;42.054;24.546;2023-07-29T01:18:46;2.17;;;1.27;;
20022;SDS011;10172;42.054;24.546;2023-07-29T01:21:13;2.33;;;1.40;;
20022;SDS011;10172;42.054;24.546;2023-07-29T01:23:41;2.10;;;1.50;;
20022;SDS011;10172;42.054;24.546;2023-07-29T01:26:07;1.73;;;1.30;;
20022;SDS011;10172;42.054;24.546;2023-07-29T01:28:32;2.47;;;1.45;;
20022;SDS011;10172;42.054;24.546;2023-07-29T01:31:02;4.65;;;1.50;;
20022;SDS011;10172;42.054;24.546;2023-07-29T01:33:38;2.30;;;1.40;;
20022;SDS011;10172;42.054;24.546;2023-07-29T01:36:15;4.80;;;1.42;;
20022;SDS011;10172;42.054;24.546;2023-07-29T01:38:47;1.92;;;1.40;;
20022;SDS011;10172;42.054;24.546;2023-07-29T01:41:14;3.45;;;1.30;;
20022;SDS011;10172;42.054;24.546;2023-07-29T01:43:42;2.72;;;1.65;;
20022;SDS011;10172;42.054;24.546;2023-07-29T01:46:11;2.58;;;1.20;;
20022;SDS011;10172;42.054;24.546;2023-07-29T01:48:40;2.60;;;1.48;;
20022;SDS011;10172;42.054;24.546;2023-07-29T01:51:05;2.35;;;1.33;;
20022;SDS011;10172;42.054;24.546;2023-07-29T01:53:32;2.03;;;1.20;;
20022;SDS011;10172;42.054;24.546;2023-07-29T01:55:57;1.67;;;1.33;;
20022;SDS011;10172;42.054;24.546;2023-07-29T01:58:23;2.35;;;1.38;;
20022;SDS011;10172;42.054;24.546;2023-07-29T02:00:49;3.33;;;1.35;;
20022;SDS011;10172;42.054;24.546;2023-07-29T02:03:14;2.15;;;1.40;;
20022;SDS011;10172;42.054;24.546;2023-07-29T02:05:40;1.85;;;1.67;;
20022;SDS011;10172;42.054;24.546;2023-07-29T02:08:08;1.73;;;1.20;;
20022;SDS011;10172;42.054;24.546;2023-07-29T02:10:34;2.72;;;1.50;;
20022;SDS011;10172;42.054;24.546;2023-07-29T02:12:59;4.60;;;1.50;;
20022;SDS011;10172;42.054;24.546;2023-07-29T02:15:24;2.50;;;1.40;;
20022;SDS011;10172;42.054;24.546;2023-07-29T02:17:50;1.90;;;1.40;;
20022;SDS011;10172;42.054;24.546;2023-07-29T02:20:17;2.15;;;1.35;;
20022;SDS011;10172;42.054;24.546;2023-07-29T02:22:42;4.57;;;1.67;;
20022;SDS011;10172;42.054;24.546;2023-07-29T02:25:08;2.47;;;1.67;;
20022;SDS011;10172;42.054;24.546;2023-07-29T02:27:35;3.20;;;1.77;;
20022;SDS011;10172;42.054;24.546;2023-07-29T02:30:00;1.63;;;1.30;;
20022;SDS011;10172;42.054;24.546;2023-07-29T02:32:26;3.35;;;1.48;;
20022;SDS011;10172;42.054;24.546;2023-07-29T02:34:51;2.35;;;1.40;;
20022;SDS011;10172;42.054;24.546;2023-07-29T02:37:17;1.65;;;1.17;;
20022;SDS011;10172;42.054;24.546;2023-07-29T02:39:42;2.63;;;1.50;;
20022;SDS011;10172;42.054;24.546;2023-07-29T02:42:07;2.75;;;1.50;;
20022;SDS011;10172;42.054;24.546;2023-07-29T02:44:33;2.58;;;1.40;;
20022;SDS011;10172;42.054;24.546;2023-07-29T02:46:59;2.13;;;1.40;;
20022;SDS011;10172;42.054;24.546;2023-07-29T02:49:24;2.17;;;1.40;;
20022;SDS011;10172;42.054;24.546;2023-07-29T02:51:50;2.92;;;1.30;;
20022;SDS011;10172;42.054;24.546;2023-07-29T02:54:15;3.17;;;1.63;;
20022;SDS011;10172;42.054;24.546;2023-07-29T02:56:40;2.38;;;1.40;;
20022;SDS011;10172;42.054;24.546;2023-07-29T02:59:06;2.55;;;1.48;;
20022;SDS011;10172;42.054;24.546;2023-07-29T03:01:31;1.90;;;1.42;;
20022;SDS011;10172;42.054;24.546;2023-07-29T03:03:57;3.10;;;1.48;;
20022;SDS011;10172;42.054;24.546;2023-07-29T03:06:23;1.67;;;1.25;;
20022;SDS011;10172;42.054;24.546;2023-07-29T03:08:49;2.50;;;1.30;;
20022;SDS011;10172;42.054;24.546;2023-07-29T03:11:15;5.68;;;1.92;;
20022;SDS011;10172;42.054;24.546;2023-07-29T03:13:41;2.30;;;1.38;;
20022;SDS011;10172;42.054;24.546;2023-07-29T03:16:10;3.30;;;1.52;;
20022;SDS011;10172;42.054;24.546;2023-07-29T03:18:40;3.63;;;1.50;;
20022;SDS011;10172;42.054;24.546;2023-07-29T03:21:07;2.60;;;1.52;;
20022;SDS011;10172;42.054;24.546;2023-07-29T03:23:33;2.15;;;1.50;;
20022;SDS011;10172;42.054;24.546;2023-07-29T03:25:59;2.22;;;1.60;;
20022;SDS011;10172;42.054;24.546;2023-07-29T03:28:26;3.90;;;1.60;;
20022;SDS011;10172;42.054;24.546;2023-07-29T03:30:53;2.15;;;1.25;;
20022;SDS011;10172;42.054;24.546;2023-07-29T03:33:20;2.17;;;1.50;;
20022;SDS011;10172;42.054;24.546;2023-07-29T03:35:45;2.72;;;1.75;;
20022;SDS011;10172;42.054;24.546;2023-07-29T03:38:11;4.63;;;1.52;;
20022;SDS011;10172;42.054;24.546;2023-07-29T03:40:37;3.83;;;1.60;;
20022;SDS011;10172;42.054;24.546;2023-07-29T03:43:03;2.45;;;1.58;;
20022;SDS011;10172;42.054;24.546;2023-07-29T03:45:29;1.35;;;1.20;;
20022;SDS011;10172;42.054;24.546;2023-07-29T03:47:55;2.50;;;1.30;;
20022;SDS011;10172;42.054;24.546;2023-07-29T03:50:20;1.85;;;1.20;;
20022;SDS011;10172;42.054;24.546;2023-07-29T03:52:46;2.63;;;1.77;;
20022;SDS011;10172;42.054;24.546;2023-07-29T03:55:11;3.60;;;1.60;;
20022;SDS011;10172;42.054;24.546;2023-07-29T03:57:37;3.05;;;1.70;;
20022;SDS011;10172;42.054;24.546;2023-07-29T04:00:02;2.22;;;1.50;;
20022;SDS011;10172;42.054;24.546;2023-07-29T04:02:28;2.95;;;1.20;;
20022;SDS011;10172;42.054;24.546;2023-07-29T04:04:54;2.53;;;1.45;;
20022;SDS011;10172;42.054;24.546;2023-07-29T04:07:19;1.98;;;1.30;;
20022;SDS011;10172;42.054;24.546;2023-07-29T04:09:45;3.15;;;1.98;;
20022;SDS011;10172;42.054;24.546;2023-07-29T04:12:10;2.00;;;1.35;;
20022;SDS011;10172;42.054;24.546;2023-07-29T04:14:36;3.90;;;1.95;;
20022;SDS011;10172;42.054;24.546;2023-07-29T04:17:01;2.38;;;1.25;;
20022;SDS011;10172;42.054;24.546;2023-07-29T04:19:27;3.35;;;1.42;;
20022;SDS011;10172;42.054;24.546;2023-07-29T04:21:52;3.30;;;1.70;;
20022;SDS011;10172;42.054;24.546;2023-07-29T04:24:18;3.63;;;1.45;;
20022;SDS011;10172;42.054;24.546;2023-07-29T04:26:45;3.10;;;1.63;;
20022;SDS011;10172;42.054;24.546;2023-07-29T04:29:11;2.67;;;1.75;;
20022;SDS011;10172;42.054;24.546;2023-07-29T04:31:37;5.82;;;1.80;;
20022;SDS011;10172;42.054;24.546;2023-07-29T04:34:02;3.10;;;1.80;;
20022;SDS011;10172;42.054;24.546;2023-07-29T04:36:28;2.88;;;1.95;;
20022;SDS011;10172;42.054;24.546;2023-07-29T04:38:53;2.28;;;1.52;;
20022;SDS011;10172;42.054;24.546;2023-07-29T04:41:18;3.15;;;1.98;;
20022;SDS011;10172;42.054;24.546;2023-07-29T04:43:44;2.80;;;1.48;;
20022;SDS011;10172;42.054;24.546;2023-07-29T04:46:09;3.25;;;1.77;;
20022;SDS011;10172;42.054;24.546;2023-07-29T04:48:35;3.13;;;1.63;;
20022;SDS011;10172;42.054;24.546;2023-07-29T04:51:00;3.15;;;1.52;;
20022;SDS011;10172;42.054;24.546;2023-07-29T04:53:26;2.33;;;1.50;;
20022;SDS011;10172;42.054;24.546;2023-07-29T04:55:51;3.10;;;1.85;;
20022;SDS011;10172;42.054;24.546;2023-07-29T04:58:16;3.13;;;1.80;;
20022;SDS011;10172;42.054;24.546;2023-07-29T05:00:42;5.95;;;2.25;;
20022;SDS011;10172;42.054;24.546;2023-07-29T05:03:07;2.47;;;1.67;;
20022;SDS011;10172;42.054;24.546;2023-07-29T05:05:33;4.57;;;1.92;;
20022;SDS011;10172;42.054;24.546;2023-07-29T05:07:58;2.67;;;1.90;;
20022;SDS011;10172;42.054;24.546;2023-07-29T05:10:24;4.65;;;2.00;;
20022;SDS011;10172;42.054;24.546;2023-07-29T05:12:49;3.85;;;2.30;;
20022;SDS011;10172;42.054;24.546;2023-07-29T05:15:15;6.75;;;2.55;;
20022;SDS011;10172;42.054;24.546;2023-07-29T05:17:40;3.72;;;2.28;;
20022;SDS011;10172;42.054;24.546;2023-07-29T05:20:06;4.50;;;2.10;;
20022;SDS011;10172;42.054;24.546;2023-07-29T05:22:33;3.58;;;2.08;;
20022;SDS011;10172;42.054;24.546;2023-07-29T05:24:58;5.80;;;2.10;;
20022;SDS011;10172;42.054;24.546;2023-07-29T05:27:23;3.65;;;2.28;;
20022;SDS011;10172;42.054;24.546;2023-07-29T05:29:49;4.93;;;1.75;;
20022;SDS011;10172;42.054;24.546;2023-07-29T05:32:14;3.63;;;2.00;;
20022;SDS011;10172;42.054;24.546;2023-07-29T05:34:40;3.78;;;2.40;;
20022;SDS011;10172;42.054;24.546;2023-07-29T05:37:05;6.07;;;2.00;;
20022;SDS011;10172;42.054;24.546;2023-07-29T05:39:31;4.75;;;2.22;;
20022;SDS011;10172;42.054;24.546;2023-07-29T05:41:57;3.67;;;2.10;;
20022;SDS011;10172;42.054;24.546;2023-07-29T05:44:22;3.80;;;2.13;;
20022;SDS011;10172;42.054;24.546;2023-07-29T05:46:48;5.40;;;2.15;;
20022;SDS011;10172;42.054;24.546;2023-07-29T05:49:13;3.67;;;2.20;;
20022;SDS011;10172;42.054;24.546;2023-07-29T05:51:39;3.80;;;2.10;;
20022;SDS011;10172;42.054;24.546;2023-07-29T05:54:04;3.63;;;1.75;;
20022;SDS011;10172;42.054;24.546;2023-07-29T05:56:30;3.35;;;2.05;;
20022;SDS011;10172;42.054;24.546;2023-07-29T05:58:56;6.00;;;2.28;;
20022;SDS011;10172;42.054;24.546;2023-07-29T06:01:22;2.80;;;1.88;;
20022;SDS011;10172;42.054;24.546;2023-07-29T06:03:47;5.03;;;2.17;;
20022;SDS011;10172;42.054;24.546;2023-07-29T06:06:13;5.70;;;2.80;;
20022;SDS011;10172;42.054;24.546;2023-07-29T06:08:39;3.90;;;2.38;;
20022;SDS011;10172;42.054;24.546;2023-07-29T06:11:04;6.20;;;2.72;;
20022;SDS011;10172;42.054;24.546;2023-07-29T06:13:31;3.38;;;2.22;;
20022;SDS011;10172;42.054;24.546;2023-07-29T06:15:57;4.75;;;2.15;;
20022;SDS011;10172;42.054;24.546;2023-07-29T06:18:23;3.33;;;2.10;;
20022;SDS011;10172;42.054;24.546;2023-07-29T06:20:48;2.70;;;2.00;;
20022;SDS011;10172;42.054;24.546;2023-07-29T06:23:14;3.75;;;2.03;;
20022;SDS011;10172;42.054;24.546;2023-07-29T06:25:39;3.53;;;2.17;;
20022;SDS011;10172;42.054;24.546;2023-07-29T06:28:05;5.80;;;2.38;;
20022;SDS011;10172;42.054;24.546;2023-07-29T06:30:30;3.13;;;2.03;;
20022;SDS011;10172;42.054;24.546;2023-07-29T06:32:56;5.45;;;3.03;;
20022;SDS011;10172;42.054;24.546;2023-07-29T06:35:21;3.45;;;1.95;;
20022;SDS011;10172;42.054;24.546;2023-07-29T06:37:47;4.93;;;2.28;;
20022;SDS011;10172;42.054;24.546;2023-07-29T06:40:12;4.18;;;2.50;;
20022;SDS011;10172;42.054;24.546;2023-07-29T06:42:38;3.75;;;2.00;;
20022;SDS011;10172;42.054;24.546;2023-07-29T06:45:04;3.53;;;2.05;;
20022;SDS011;10172;42.054;24.546;2023-07-29T06:47:30;3.53;;;2.25;;
20022;SDS011;10172;42.054;24.546;2023-07-29T06:49:55;3.80;;;2.22;;
20022;SDS011;10172;42.054;24.546;2023-07-29T06:52:21;4.15;;;1.98;;
20022;SDS011;10172;42.054;24.546;2023-07-29T06:54:46;5.28;;;2.20;;
20022;SDS011;10172;42.054;24.546;2023-07-29T06:57:12;4.28;;;2.10;;
20022;SDS011;10172;42.054;24.546;2023-07-29T06:59:37;4.18;;;2.10;;
20022;SDS011;10172;42.054;24.546;2023-07-29T07:02:03;3.78;;;1.95;;
20022;SDS011;10172;42.054;24.546;2023-07-29T07:04:28;3.95;;;2.17;;
20022;SDS011;10172;42.054;24.546;2023-07-29T07:06:54;3.25;;;2.05;;
20022;SDS011;10172;42.054;24.546;2023-07-29T07:09:21;2.95;;;1.98;;
20022;SDS011;10172;42.054;24.546;2023-07-29T07:11:46;6.25;;;2.45;;
20022;SDS011;10172;42.054;24.546;2023-07-29T07:14:12;3.97;;;2.03;;
20022;SDS011;10172;42.054;24.546;2023-07-29T07:16:38;4.55;;;2.05;;
20022;SDS011;10172;42.054;24.546;2023-07-29T07:19:04;4.07;;;2.03;;
20022;SDS011;10172;42.054;24.546;2023-07-29T07:21:30;5.30;;;1.98;;
20022;SDS011;10172;42.054;24.546;2023-07-29T07:23:57;3.90;;;2.10;;
20022;SDS011;10172;42.054;24.546;2023-07-29T07:26:23;4.47;;;2.30;;
20022;SDS011;10172;42.054;24.546;2023-07-29T07:28:48;3.95;;;1.88;;
20022;SDS011;10172;42.054;24.546;2023-07-29T07:31:14;3.63;;;2.15;;
20022;SDS011;10172;42.054;24.546;2023-07-29T07:33:41;4.43;;;1.90;;
20022;SDS011;10172;42.054;24.546;2023-07-29T07:36:06;3.75;;;1.90;;
20022;SDS011;10172;42.054;24.546;2023-07-29T07:38:32;3.88;;;1.98;;
20022;SDS011;10172;42.054;24.546;2023-07-29T07:40:57;3.40;;;1.98;;
20022;SDS011;10172;42.054;24.546;2023-07-29T07:43:23;3.55;;;2.00;;
20022;SDS011;10172;42.054;24.546;2023-07-29T07:45:49;3.22;;;2.03;;
20022;SDS011;10172;42.054;24.546;2023-07-29T07:48:16;2.28;;;1.77;;
20022;SDS011;10172;42.054;24.546;2023-07-29T07:50:45;2.90;;;1.80;;
20022;SDS011;10172;42.054;24.546;2023-07-29T07:53:10;2.38;;;1.75;;
20022;SDS011;10172;42.054;24.546;2023-07-29T07:55:37;3.13;;;1.58;;
20022;SDS011;10172;42.054;24.546;2023-07-29T07:58:03;3.30;;;2.00;;
20022;SDS011;10172;42.054;24.546;2023-07-29T08:00:29;4.38;;;1.88;;
20022;SDS011;10172;42.054;24.546;2023-07-29T08:02:54;4.00;;;1.85;;
20022;SDS011;10172;42.054;24.546;2023-07-29T08:05:19;2.13;;;1.60;;
20022;SDS011;10172;42.054;24.546;2023-07-29T08:07:45;3.55;;;1.80;;
20022;SDS011;10172;42.054;24.546;2023-07-29T08:10:10;3.53;;;2.00;;
20022;SDS011;10172;42.054;24.546;2023-07-29T08:12:36;4.72;;;2.03;;
20022;SDS011;10172;42.054;24.546;2023-07-29T08:15:01;2.00;;;1.40;;
20022;SDS011;10172;42.054;24.546;2023-07-29T08:17:28;3.78;;;1.90;;
20022;SDS011;10172;42.054;24.546;2023-07-29T08:19:53;2.83;;;1.48;;
20022;SDS011;10172;42.054;24.546;2023-07-29T08:22:19;3.00;;;1.42;;
20022;SDS011;10172;42.054;24.546;2023-07-29T08:24:45;2.45;;;1.67;;
20022;SDS011;10172;42.054;24.546;2023-07-29T08:27:10;2.63;;;1.40;;
20022;SDS011;10172;42.054;24.546;2023-07-29T08:29:38;3.00;;;1.60;;
20022;SDS011;10172;42.054;24.546;2023-07-29T08:32:04;2.85;;;1.50;;
20022;SDS011;10172;42.054;24.546;2023-07-29T08:34:29;3.40;;;1.55;;
20022;SDS011;10172;42.054;24.546;2023-07-29T08:36:55;2.97;;;1.45;;
20022;SDS011;10172;42.054;24.546;2023-07-29T08:39:20;2.78;;;1.75;;
20022;SDS011;10172;42.054;24.546;2023-07-29T08:41:53;1.65;;;1.17;;
20022;SDS011;10172;42.054;24.546;2023-07-29T08:44:26;10.05;;;3.28;;
20022;SDS011;10172;42.054;24.546;2023-07-29T08:46:56;3.95;;;1.70;;
20022;SDS011;10172;42.054;24.546;2023-07-29T08:49:22;3.00;;;1.38;;
20022;SDS011;10172;42.054;24.546;2023-07-29T08:51:49;3.15;;;1.60;;
20022;SDS011;10172;42.054;24.546;2023-07-29T08:54:16;2.05;;;1.42;;
20022;SDS011;10172;42.054;24.546;2023-07-29T08:56:42;37.53;;;7.57;;
20022;SDS011;10172;42.054;24.546;2023-07-29T08:59:08;4.97;;;2.10;;
20022;SDS011;10172;42.054;24.546;2023-07-29T09:01:35;2.28;;;1.40;;
20022;SDS011;10172;42.054;24.546;2023-07-29T09:04:01;5.15;;;1.73;;
20022;SDS011;10172;42.054;24.546;2023-07-29T09:06:26;4.03;;;1.40;;
20022;SDS011;10172;42.054;24.546;2023-07-29T09:08:53;2.60;;;1.08;;
20022;SDS011;10172;42.054;24.546;2023-07-29T09:11:21;2.05;;;1.20;;
20022;SDS011;10172;42.054;24.546;2023-07-29T09:13:47;3.85;;;1.23;;
20022;SDS011;10172;42.054;24.546;2023-07-29T09:16:13;1.67;;;1.20;;
20022;SDS011;10172;42.054;24.546;2023-07-29T09:18:39;2.35;;;1.45;;
20022;SDS011;10172;42.054;24.546;2023-07-29T09:21:05;2.13;;;1.35;;
20022;SDS011;10172;42.054;24.546;2023-07-29T09:23:40;2.38;;;1.50;;
20022;SDS011;10172;42.054;24.546;2023-07-29T09:26:07;1.98;;;1.17;;
20022;SDS011;10172;42.054;24.546;2023-07-29T09:28:34;2.55;;;1.17;;
20022;SDS011;10172;42.054;24.546;2023-07-29T09:31:00;6.15;;;1.80;;
20022;SDS011;10172;42.054;24.546;2023-07-29T09:33:27;6.07;;;1.90;;
20022;SDS011;10172;42.054;24.546;2023-07-29T09:35:52;5.72;;;1.75;;
20022;SDS011;10172;42.054;24.546;2023-07-29T09:38:18;2.28;;;1.35;;
20022;SDS011;10172;42.054;24.546;2023-07-29T09:40:50;2.50;;;1.20;;
20022;SDS011;10172;42.054;24.546;2023-07-29T09:43:20;7.53;;;1.92;;
20022;SDS011;10172;42.054;24.546;2023-07-29T09:45:51;4.30;;;1.58;;
20022;SDS011;10172;42.054;24.546;2023-07-29T09:48:19;1.60;;;1.02;;
20022;SDS011;10172;42.054;24.546;2023-07-29T09:50:48;2.63;;;1.25;;
20022;SDS011;10172;42.054;24.546;2023-07-29T09:53:13;2.28;;;1.67;;
20022;SDS011;10172;42.054;24.546;2023-07-29T09:55:39;1.65;;;1.17;;
20022;SDS011;10172;42.054;24.546;2023-07-29T09:58:10;3.00;;;1.30;;
20022;SDS011;10172;42.054;24.546;2023-07-29T10:00:36;2.30;;;1.23;;
20022;SDS011;10172;42.054;24.546;2023-07-29T10:03:04;1.95;;;1.10;;
20022;SDS011;10172;42.054;24.546;2023-07-29T10:05:29;2.10;;;1.00;;
20022;SDS011;10172;42.054;24.546;2023-07-29T10:07:55;1.85;;;1.08;;
20022;SDS011;10172;42.054;24.546;2023-07-29T10:10:21;2.63;;;1.05;;
20022;SDS011;10172;42.054;24.546;2023-07-29T10:12:47;1.52;;;1.00;;
20022;SDS011;10172;42.054;24.546;2023-07-29T10:15:14;2.42;;;1.02;;
20022;SDS011;10172;42.054;24.546;2023-07-29T10:17:40;1.88;;;1.15;;
20022;SDS011;10172;42.054;24.546;2023-07-29T10:20:07;2.08;;;1.13;;
20022;SDS011;10172;42.054;24.546;2023-07-29T10:22:40;1.33;;;0.90;;
20022;SDS011;10172;42.054;24.546;2023-07-29T10:25:09;1.60;;;0.75;;
20022;SDS011;10172;42.054;24.546;2023-07-29T10:27:44;1.15;;;0.80;;
20022;SDS011;10172;42.054;24.546;2023-07-29T10:30:30;4.55;;;1.75;;
20022;SDS011;10172;42.054;24.546;2023-07-29T10:32:57;5.15;;;1.40;;
20022;SDS011;10172;42.054;24.546;2023-07-29T10:35:26;3.83;;;1.00;;
20022;SDS011;10172;42.054;24.546;2023-07-29T10:37:52;3.22;;;1.27;;
20022;SDS011;10172;42.054;24.546;2023-07-29T10:40:18;1.45;;;1.15;;
20022;SDS011;10172;42.054;24.546;2023-07-29T10:43:06;1.58;;;1.15;;
20022;SDS011;10172;42.054;24.546;2023-07-29T10:45:38;2.30;;;0.90;;
20022;SDS011;10172;42.054;24.546;2023-07-29T10:50:36;1.05;;;0.90;;
20022;SDS011;10172;42.054;24.546;2023-07-29T10:53:01;1.05;;;0.90;;
20022;SDS011;10172;42.054;24.546;2023-07-29T10:55:28;2.20;;;0.93;;
20022;SDS011;10172;42.054;24.546;2023-07-29T11:00:39;1.30;;;0.90;;
20022;SDS011;10172;42.054;24.546;2023-07-29T11:03:06;1.00;;;0.70;;
20022;SDS011;10172;42.054;24.546;2023-07-29T11:08:22;1.00;;;0.70;;
20022;SDS011;10172;42.054;24.546;2023-07-29T11:11:07;1.38;;;0.75;;
20022;SDS011;10172;42.054;24.546;2023-07-29T11:13:37;2.25;;;0.90;;
20022;SDS011;10172;42.054;24.546;2023-07-29T11:16:03;3.33;;;0.82;;
20022;SDS011;10172;42.054;24.546;2023-07-29T11:18:30;1.50;;;0.80;;
20022;SDS011;10172;42.054;24.546;2023-07-29T11:21:00;1.20;;;0.68;;
20022;SDS011;10172;42.054;24.546;2023-07-29T11:23:31;5.18;;;0.80;;
20022;SDS011;10172;42.054;24.546;2023-07-29T11:25:58;0.70;;;0.40;;
20022;SDS011;10172;42.054;24.546;2023-07-29T11:28:24;1.00;;;0.60;;
20022;SDS011;10172;42.054;24.546;2023-07-29T11:30:51;2.40;;;0.50;;
20022;SDS011;10172;42.054;24.546;2023-07-29T11:33:17;1.33;;;0.50;;
20022;SDS011;10172;42.054;24.546;2023-07-29T11:35:45;2.22;;;0.35;;
20022;SDS011;10172;42.054;24.546;2023-07-29T11:38:14;1.85;;;0.70;;
20022;SDS011;10172;42.054;24.546;2023-07-29T11:40:43;1.05;;;0.60;;
20022;SDS011;10172;42.054;24.546;2023-07-29T11:43:18;0.70;;;0.70;;
20022;SDS011;10172;42.054;24.546;2023-07-29T11:45:44;2.72;;;0.63;;
20022;SDS011;10172;42.054;24.546;2023-07-29T11:48:10;4.32;;;1.20;;
20022;SDS011;10172;42.054;24.546;2023-07-29T11:50:35;0.80;;;0.80;;
20022;SDS011;10172;42.054;24.546;2023-07-29T11:53:01;0.80;;;0.60;;
20022;SDS011;10172;42.054;24.546;2023-07-29T11:55:26;0.93;;;0.50;;
20022;SDS011;10172;42.054;24.546;2023-07-29T11:57:52;0.73;;;0.50;;
20022;SDS011;10172;42.054;24.546;2023-07-29T12:00:18;1.25;;;0.70;;
20022;SDS011;10172;42.054;24.546;2023-07-29T12:02:43;1.45;;;0.80;;
20022;SDS011;10172;42.054;24.546;2023-07-29T12:05:10;0.68;;;0.55;;
20022;SDS011;10172;42.054;24.546;2023-07-29T12:07:40;2.08;;;0.60;;
20022;SDS011;10172;42.054;24.546;2023-07-29T12:10:07;0.60;;;0.40;;
20022;SDS011;10172;42.054;24.546;2023-07-29T12:12:38;1.08;;;0.52;;
20022;SDS011;10172;42.054;24.546;2023-07-29T12:15:09;0.80;;;0.40;;
20022;SDS011;10172;42.054;24.546;2023-07-29T12:17:39;0.80;;;0.43;;
20022;SDS011;10172;42.054;24.546;2023-07-29T12:20:07;0.50;;;0.40;;
20022;SDS011;10172;42.054;24.546;2023-07-29T12:22:34;0.80;;;0.47;;
20022;SDS011;10172;42.054;24.546;2023-07-29T12:24:59;0.93;;;0.50;;
20022;SDS011;10172;42.054;24.546;2023-07-29T12:27:26;0.35;;;0.32;;
20022;SDS011;10172;42.054;24.546;2023-07-29T12:29:51;1.52;;;0.57;;
20022;SDS011;10172;42.054;24.546;2023-07-29T12:32:18;0.70;;;0.50;;
20022;SDS011;10172;42.054;24.546;2023-07-29T12:34:44;1.17;;;0.68;;
20022;SDS011;10172;42.054;24.546;2023-07-29T12:37:09;0.75;;;0.70;;
20022;SDS011;10172;42.054;24.546;2023-07-29T12:39:39;0.63;;;0.50;;
20022;SDS011;10172;42.054;24.546;2023-07-29T12:42:06;0.73;;;0.60;;
20022;SDS011;10172;42.054;24.546;2023-07-29T12:44:32;1.48;;;0.88;;
20022;SDS011;10172;42.054;24.546;2023-07-29T12:47:00;0.95;;;0.65;;
20022;SDS011;10172;42.054;24.546;2023-07-29T12:49:28;1.67;;;0.80;;
20022;SDS011;10172;42.054;24.546;2023-07-29T12:51:54;1.02;;;0.63;;
20022;SDS011;10172;42.054;24.546;2023-07-29T12:54:20;1.15;;;0.70;;
20022;SDS011;10172;42.054;24.546;2023-07-29T12:56:46;2.80;;;0.63;;
20022;SDS011;10172;42.054;24.546;2023-07-29T12:59:11;0.80;;;0.47;;
20022;SDS011;10172;42.054;24.546;2023-07-29T13:01:37;0.60;;;0.50;;
20022;SDS011;10172;42.054;24.546;2023-07-29T13:04:02;1.33;;;0.60;;
20022;SDS011;10172;42.054;24.546;2023-07-29T13:06:28;2.58;;;0.88;;
20022;SDS011;10172;42.054;24.546;2023-07-29T13:08:53;0.80;;;0.65;;
20022;SDS011;10172;42.054;24.546;2023-07-29T13:11:19;0.93;;;0.75;;
20022;SDS011;10172;42.054;24.546;2023-07-29T13:13:44;2.38;;;0.80;;
20022;SDS011;10172;42.054;24.546;2023-07-29T13:16:10;1.52;;;0.65;;
20022;SDS011;10172;42.054;24.546;2023-07-29T13:18:36;0.93;;;0.65;;
20022;SDS011;10172;42.054;24.546;2023-07-29T13:21:02;2.25;;;1.10;;
20022;SDS011;10172;42.054;24.546;2023-07-29T13:23:27;1.38;;;0.80;;
20022;SDS011;10172;42.054;24.546;2023-07-29T13:25:54;0.93;;;0.88;;
20022;SDS011;10172;42.054;24.546;2023-07-29T13:28:20;0.65;;;0.65;;
20022;SDS011;10172;42.054;24.546;2023-07-29T13:30:46;0.90;;;0.75;;
20022;SDS011;10172;42.054;24.546;2023-07-29T13:33:11;0.90;;;0.65;;
20022;SDS011;10172;42.054;24.546;2023-07-29T13:35:37;1.05;;;0.60;;
20022;SDS011;10172;42.054;24.546;2023-07-29T13:38:02;2.30;;;0.65;;
20022;SDS011;10172;42.054;24.546;2023-07-29T13:40:28;1.65;;;0.90;;
20022;SDS011;10172;42.054;24.546;2023-07-29T13:42:54;0.98;;;0.65;;
20022;SDS011;10172;42.054;24.546;2023-07-29T13:45:20;3.10;;;0.85;;
20022;SDS011;10172;42.054;24.546;2023-07-29T13:47:46;1.35;;;0.80;;
20022;SDS011;10172;42.054;24.546;2023-07-29T13:50:11;3.35;;;1.00;;
20022;SDS011;10172;42.054;24.546;2023-07-29T13:52:37;0.75;;;0.60;;
20022;SDS011;10172;42.054;24.546;2023-07-29T13:55:03;1.13;;;0.90;;
20022;SDS011;10172;42.054;24.546;2023-07-29T13:57:29;3.45;;;0.85;;
20022;SDS011;10172;42.054;24.546;2023-07-29T13:59:55;3.00;;;0.95;;
20022;SDS011;10172;42.054;24.546;2023-07-29T14:02:20;5.05;;;0.93;;
20022;SDS011;10172;42.054;24.546;2023-07-29T14:04:46;1.42;;;0.85;;
20022;SDS011;10172;42.054;24.546;2023-07-29T14:07:11;1.27;;;0.63;;
20022;SDS011;10172;42.054;24.546;2023-07-29T14:09:37;2.83;;;0.75;;
20022;SDS011;10172;42.054;24.546;2023-07-29T14:12:03;0.63;;;0.50;;
20022;SDS011;10172;42.054;24.546;2023-07-29T14:14:29;2.17;;;0.80;;
20022;SDS011;10172;42.054;24.546;2023-07-29T14:16:55;2.80;;;0.50;;
20022;SDS011;10172;42.054;24.546;2023-07-29T14:19:20;0.93;;;0.50;;
20022;SDS011;10172;42.054;24.546;2023-07-29T14:21:46;1.05;;;0.68;;
20022;SDS011;10172;42.054;24.546;2023-07-29T14:24:11;1.00;;;0.50;;
20022;SDS011;10172;42.054;24.546;2023-07-29T14:26:37;1.15;;;0.60;;
20022;SDS011;10172;42.054;24.546;2023-07-29T14:29:02;2.03;;;0.70;;
20022;SDS011;10172;42.054;24.546;2023-07-29T14:31:28;2.13;;;0.90;;
20022;SDS011;10172;42.054;24.546;2023-07-29T14:33:53;5.18;;;0.68;;
20022;SDS011;10172;42.054;24.546;2023-07-29T14:36:18;1.85;;;0.63;;
20022;SDS011;10172;42.054;24.546;2023-07-29T14:38:44;4.30;;;0.77;;
20022;SDS011;10172;42.054;24.546;2023-07-29T14:41:09;1.10;;;0.70;;
20022;SDS011;10172;42.054;24.546;2023-07-29T14:43:35;1.05;;;0.60;;